ID Time Temp Humidity Light PM2.5 PM10 Voltage Extra Firmware Position Fcnt TTN version Gateways Distance RSSI LSNR Radiosettings
2026-05-07 17:23:56 17°C 75.875% 3.29V v254 52.1199 / 5.07657 3597 ttn.v3 - -114 -13 867.7MHz, SF10BW125, 4/5CR
0.103km -94 -15.5 867.7MHz, SF10BW125, 4/5CR
2026-05-07 17:07:24 16.625°C 78% 3.29V v254 52.1199 / 5.07657 3596 ttn.v3 0.103km -98 -1.5 868.5MHz, SF10BW125, 4/5CR
2026-05-07 16:50:51 16.1875°C 81.9375% 3.28V v254 52.1199 / 5.07657 3595 ttn.v3 0.103km -105 -10.25 867.5MHz, SF10BW125, 4/5CR
- -111 -10.5 867.5MHz, SF10BW125, 4/5CR
2026-05-07 16:34:19 16.1875°C 78% 3.29V v254 52.1199 / 5.07657 3594 ttn.v3 0.103km -91 -9.75 868.3MHz, SF10BW125, 4/5CR
2026-05-07 16:17:46 16.25°C 72.375% 3.29V v254 52.1199 / 5.07657 3593 ttn.v3 - -110 -3.75 867.3MHz, SF10BW125, 4/5CR
0.103km -92 -12.75 867.3MHz, SF10BW125, 4/5CR
2026-05-07 16:01:14 16.875°C 66.3125% 3.29V v254 52.1199 / 5.07657 3592 ttn.v3 0.103km -101 1 868.1MHz, SF10BW125, 4/5CR
- -114 -10.5 868.1MHz, SF10BW125, 4/5CR
2026-05-07 15:44:41 16.9375°C 68.625% 3.29V v254 52.1199 / 5.07657 3591 ttn.v3 0.103km -101 0.75 867.1MHz, SF10BW125, 4/5CR
- -113 -11.5 867.1MHz, SF10BW125, 4/5CR
2026-05-07 15:28:09 16.75°C 72.125% 3.29V v254 52.1199 / 5.07657 3590 ttn.v3 0.103km -101 2 868.5MHz, SF10BW125, 4/5CR
2026-05-07 15:11:36 16.3125°C 79.6875% 3.28V v254 52.1199 / 5.07657 3589 ttn.v3 0.103km -100 1.75 867.9MHz, SF10BW125, 4/5CR
- -115 -9.5 867.9MHz, SF10BW125, 4/5CR
5.896km -109 -10.75 867.9MHz, SF10BW125, 4/5CR
2026-05-07 14:55:04 16.1875°C 86.3125% 3.28V v254 52.1199 / 5.07657 3588 ttn.v3 0.103km -102 -2.25 868.3MHz, SF10BW125, 4/5CR
2026-05-07 14:38:31 16.1875°C 85.25% 3.29V v254 52.1199 / 5.07657 3587 ttn.v3 0.103km -101 1.25 867.7MHz, SF10BW125, 4/5CR
- -113 -14.5 867.7MHz, SF10BW125, 4/5CR
2026-05-07 14:21:59 16.625°C 81.5625% 3.28V v254 52.1199 / 5.07657 3586 ttn.v3 0.103km -102 -2 868.1MHz, SF10BW125, 4/5CR
5.896km -107 -8 868.1MHz, SF10BW125, 4/5CR
- -115 -13 868.1MHz, SF10BW125, 4/5CR
2026-05-07 14:05:26 17.1875°C 78.1875% 3.29V v254 52.1199 / 5.07657 3585 ttn.v3 0.103km -102 -1.25 867.5MHz, SF10BW125, 4/5CR
- -111 -13.75 867.5MHz, SF10BW125, 4/5CR
2026-05-07 13:48:54 17°C 79.125% 3.29V v254 52.1199 / 5.07657 3584 ttn.v3 - -113 -10.25 868.5MHz, SF10BW125, 4/5CR
0.103km -93 -10.75 868.5MHz, SF10BW125, 4/5CR
2026-05-07 13:32:21 17.4375°C 86.9375% 3.29V v254 52.1199 / 5.07657 3583 ttn.v3 0.103km -94 -8.75 867.3MHz, SF10BW125, 4/5CR
- -112 -10.25 867.3MHz, SF10BW125, 4/5CR
5.896km -105 -13.25 867.3MHz, SF10BW125, 4/5CR
2026-05-07 13:15:49 18.25°C 82.3125% 3.29V v254 52.1199 / 5.07657 3582 ttn.v3 0.103km -93 -9.25 868.3MHz, SF10BW125, 4/5CR
- -113 -12.25 868.3MHz, SF10BW125, 4/5CR
2026-05-07 12:59:16 18.5°C 75.5625% 3.29V v254 52.1199 / 5.07657 3581 ttn.v3 - -111 -2.75 867.1MHz, SF10BW125, 4/5CR
0.103km -94 -12 867.1MHz, SF10BW125, 4/5CR
2026-05-07 12:42:44 18.1875°C 75.0625% 3.29V v254 52.1199 / 5.07657 3580 ttn.v3 0.103km -95 -9.5 868.1MHz, SF10BW125, 4/5CR
2026-05-07 12:26:11 18°C 80.8125% 3.29V v254 52.1199 / 5.07657 3579 ttn.v3 - -112 -5 867.9MHz, SF10BW125, 4/5CR
0.103km -93 -12 867.9MHz, SF10BW125, 4/5CR
5.945km -131 -16.75 867.9MHz, SF10BW125, 4/5CR
2026-05-07 12:09:39 17.1875°C 92.625% 3.29V v254 52.1199 / 5.07657 3578 ttn.v3 - -111 -7.75 868.5MHz, SF10BW125, 4/5CR
0.103km -93 -11.75 868.5MHz, SF10BW125, 4/5CR
2026-05-07 11:53:06 15.75°C 118.938% 3.28V v254 52.1199 / 5.07657 3577 ttn.v3 - -114 -9 867.7MHz, SF10BW125, 4/5CR
2026-05-07 11:36:34 14.5°C 118.938% 3.28V v254 52.1199 / 5.07657 3576 ttn.v3 0.103km -89 -10.5 868.3MHz, SF10BW125, 4/5CR
2026-05-07 11:20:02 14.125°C 118.938% 3.28V v254 52.1199 / 5.07657 3575 ttn.v3 - -111 -5.5 867.5MHz, SF10BW125, 4/5CR
0.103km -94 -13.75 867.5MHz, SF10BW125, 4/5CR
2026-05-07 11:03:29 13.875°C 118.938% 3.28V v254 52.1199 / 5.07657 3574 ttn.v3 0.103km -94 -10.75 868.1MHz, SF10BW125, 4/5CR
2026-05-07 10:46:57 14.0625°C 118.938% 3.28V v254 52.1199 / 5.07657 3573 ttn.v3 0.103km -101 -1.5 867.3MHz, SF10BW125, 4/5CR
- -113 -6.5 867.3MHz, SF10BW125, 4/5CR
2026-05-07 10:13:52 14.75°C 118.938% 3.28V v254 52.1199 / 5.07657 3571 ttn.v3 0.103km -101 -0.75 867.1MHz, SF10BW125, 4/5CR
2026-05-07 09:57:20 15.375°C 118.938% 3.28V v254 52.1199 / 5.07657 3570 ttn.v3 0.103km -98 -0.25 868.3MHz, SF10BW125, 4/5CR
- -114 -12 868.3MHz, SF10BW125, 4/5CR
2026-05-07 09:40:48 16.5625°C 91.25% 3.29V v254 52.1199 / 5.07657 3569 ttn.v3 0.103km -101 0.5 867.9MHz, SF10BW125, 4/5CR
- -114 -5.25 867.9MHz, SF10BW125, 4/5CR
2026-05-07 09:24:15 16.375°C 96.1875% 3.29V v254 52.1199 / 5.07657 3568 ttn.v3 0.103km -101 -0.5 868.1MHz, SF10BW125, 4/5CR
5.945km -128 -16.75 868.1MHz, SF10BW125, 4/5CR
2026-05-07 09:07:43 16.125°C 118.938% 3.28V v254 52.1199 / 5.07657 3567 ttn.v3 0.103km -101 -5.75 867.7MHz, SF10BW125, 4/5CR
2026-05-07 08:51:10 14.5°C 118.938% 3.28V v254 52.1199 / 5.07657 3566 ttn.v3 0.103km -100 -0.75 868.5MHz, SF10BW125, 4/5CR
2026-05-07 08:34:38 14°C 118.938% 3.28V v254 52.1199 / 5.07657 3565 ttn.v3 0.103km -101 -2.25 867.5MHz, SF10BW125, 4/5CR
- -109 -6 867.5MHz, SF10BW125, 4/5CR
2026-05-07 08:18:06 13.3125°C 118.938% 3.28V v254 52.1199 / 5.07657 3564 ttn.v3 0.103km -100 -2.25 868.3MHz, SF10BW125, 4/5CR
2026-05-07 08:01:34 12.5°C 118.938% 3.3V v254 52.1199 / 5.07657 3563 ttn.v3 0.103km -100 -1.25 867.3MHz, SF10BW125, 4/5CR
- -110 -4.5 867.3MHz, SF10BW125, 4/5CR
2026-05-07 07:45:02 11.375°C 118.938% 3.3V v254 52.1199 / 5.07657 3562 ttn.v3 0.103km -100 0.75 868.1MHz, SF10BW125, 4/5CR
5.896km -111 -13 868.1MHz, SF10BW125, 4/5CR
- -114 -15 868.1MHz, SF10BW125, 4/5CR
2026-05-07 07:28:29 7.1875°C 118.938% 3.3V v254 52.1199 / 5.07657 3561 ttn.v3 0.103km -100 -0.75 867.1MHz, SF10BW125, 4/5CR
- -114 -4.25 867.1MHz, SF10BW125, 4/5CR
2026-05-07 07:11:57 6.375°C 118.938% 3.3V v254 52.1199 / 5.07657 3560 ttn.v3 0.103km -97 1 868.5MHz, SF10BW125, 4/5CR
2026-05-07 06:55:25 6.1875°C 118.938% 3.29V v254 52.1199 / 5.07657 3559 ttn.v3 0.103km -100 0.25 867.9MHz, SF10BW125, 4/5CR
- -130 -15 867.9MHz, SF10BW125, 4/5CR
5.945km -133 -16 867.9MHz, SF10BW125, 4/5CR
2026-05-07 06:22:21 5.625°C 118.938% 3.3V v254 52.1199 / 5.07657 3557 ttn.v3 0.103km -99 -0.5 867.7MHz, SF10BW125, 4/5CR
- -114 -9 867.7MHz, SF10BW125, 4/5CR
5.945km -131 -17.25 867.7MHz, SF10BW125, 4/5CR
2026-05-07 06:05:49 5.4375°C 118.938% 3.3V v254 52.1199 / 5.07657 3556 ttn.v3 0.103km -100 2 868.1MHz, SF10BW125, 4/5CR
- -113 -11.5 868.1MHz, SF10BW125, 4/5CR
2026-05-07 05:49:17 5.4375°C 118.938% 3.3V v254 52.1199 / 5.07657 3555 ttn.v3 0.103km -100 -1.5 867.5MHz, SF10BW125, 4/5CR
- -109 -8.25 867.5MHz, SF10BW125, 4/5CR
2026-05-07 05:32:44 5.375°C 118.938% 3.3V v254 52.1199 / 5.07657 3554 ttn.v3 0.103km -98 -1.25 868.5MHz, SF10BW125, 4/5CR
- -113 -15.5 868.5MHz, SF10BW125, 4/5CR
2026-05-07 05:16:12 5.5°C 118.938% 3.3V v254 52.1199 / 5.07657 3553 ttn.v3 0.103km -99 -1.5 867.3MHz, SF10BW125, 4/5CR
- -113 -7.5 867.3MHz, SF10BW125, 4/5CR
5.945km -133 -17.25 867.3MHz, SF10BW125, 4/5CR
2026-05-07 05:00:28 5.625°C 118.938% 3.27V v254 52.1199 / 5.07657 3552 ttn.v3 0.103km -99 1.5 868.3MHz, SF12BW125, 4/5CR
- -113 -11.25 868.3MHz, SF12BW125, 4/5CR
2026-05-07 04:43:12 5.875°C 118.938% 3.3V v254 52.1198 / 5.07669 3551 ttn.v3 0.09km -101 -0.5 867.1MHz, SF10BW125, 4/5CR
- -114 -6.25 867.1MHz, SF10BW125, 4/5CR
2026-05-07 04:26:40 6.25°C 118.938% 3.3V v254 52.1198 / 5.07669 3550 ttn.v3 0.09km -101 1.25 868.1MHz, SF10BW125, 4/5CR
5.883km -105 -13 868.1MHz, SF10BW125, 4/5CR
2026-05-07 04:10:08 6.5625°C 118.938% 3.3V v254 52.1198 / 5.07669 3549 ttn.v3 0.09km -101 0.25 867.9MHz, SF10BW125, 4/5CR
5.883km -102 -12.5 867.9MHz, SF10BW125, 4/5CR
- -114 -14.5 867.9MHz, SF10BW125, 4/5CR
2026-05-07 03:53:35 6.8125°C 118.938% 3.3V v254 52.1198 / 5.07669 3548 ttn.v3 0.09km -97 0.25 868.5MHz, SF10BW125, 4/5CR
- -112 -14.75 868.5MHz, SF10BW125, 4/5CR
2026-05-07 03:37:03 7°C 118.938% 3.3V v254 52.1198 / 5.07669 3547 ttn.v3 0.09km -100 -1.5 867.7MHz, SF10BW125, 4/5CR
- -113 -9.25 867.7MHz, SF10BW125, 4/5CR
2026-05-07 03:20:31 7.125°C 118.938% 3.3V v254 52.1198 / 5.07669 3546 ttn.v3 0.09km -97 -0.25 868.3MHz, SF10BW125, 4/5CR
- -113 -11.25 868.3MHz, SF10BW125, 4/5CR
2026-05-07 03:03:59 7.4375°C 118.938% 3.3V v254 52.1198 / 5.07669 3545 ttn.v3 0.09km -101 -2.75 867.5MHz, SF10BW125, 4/5CR
- -108 -8.5 867.5MHz, SF10BW125, 4/5CR
2026-05-07 02:47:27 7.75°C 118.938% 3.3V v254 52.1198 / 5.07669 3544 ttn.v3 0.09km -99 0.75 868.1MHz, SF10BW125, 4/5CR
- -114 -16.25 868.1MHz, SF10BW125, 4/5CR
2026-05-07 02:30:55 8°C 118.938% 3.3V v254 52.1198 / 5.07669 3543 ttn.v3 0.09km -101 -4 867.3MHz, SF10BW125, 4/5CR
- -112 -7 867.3MHz, SF10BW125, 4/5CR
5.934km -133 -16.75 867.3MHz, SF10BW125, 4/5CR
2026-05-07 02:14:22 8.3125°C 118.938% 3.3V v254 52.1198 / 5.07669 3542 ttn.v3 0.09km -101 0 868.5MHz, SF10BW125, 4/5CR
2026-05-07 01:57:50 8.5625°C 118.938% 3.3V v254 52.1198 / 5.07669 3541 ttn.v3 0.09km -101 -3.75 867.1MHz, SF10BW125, 4/5CR
- -113 -5.75 867.1MHz, SF10BW125, 4/5CR
2026-05-07 01:41:18 9.125°C 118.938% 3.3V v254 52.1198 / 5.07669 3540 ttn.v3 0.09km -101 -1 868.3MHz, SF10BW125, 4/5CR
- -113 -12.75 868.3MHz, SF10BW125, 4/5CR
2026-05-07 01:24:46 9.5625°C 118.938% 3.3V v254 52.1198 / 5.07669 3539 ttn.v3 0.09km -101 -2.25 867.9MHz, SF10BW125, 4/5CR
- -114 -11.75 867.9MHz, SF10BW125, 4/5CR
5.883km -110 -12 867.9MHz, SF10BW125, 4/5CR
2026-05-07 01:08:14 9.875°C 118.938% 3.3V v254 52.1198 / 5.07669 3538 ttn.v3 0.09km -99 1.25 868.1MHz, SF10BW125, 4/5CR
5.934km -130 -17 868.1MHz, SF10BW125, 4/5CR
2026-05-07 00:51:42 10.125°C 118.938% 3.3V v254 52.1198 / 5.07669 3537 ttn.v3 0.09km -100 -1.75 867.7MHz, SF10BW125, 4/5CR
- -112 -8.5 867.7MHz, SF10BW125, 4/5CR
5.934km -129 -12.75 867.7MHz, SF10BW125, 4/5CR
5.883km -105 -12.75 867.7MHz, SF10BW125, 4/5CR
2026-05-07 00:35:09 10.375°C 118.938% 3.3V v254 52.1198 / 5.07669 3536 ttn.v3 0.09km -101 -4.5 868.5MHz, SF10BW125, 4/5CR
- -111 -11.25 868.5MHz, SF10BW125, 4/5CR
2026-05-07 00:18:37 10.5°C 118.938% 3.3V v254 52.1198 / 5.07669 3535 ttn.v3 - -109 -2.75 867.5MHz, SF10BW125, 4/5CR
0.09km -102 -7.75 867.5MHz, SF10BW125, 4/5CR
2026-05-07 00:02:05 10.625°C 118.938% 3.3V v254 52.1198 / 5.07669 3534 ttn.v3 0.09km -100 -1.25 868.3MHz, SF10BW125, 4/5CR
- -112 -14.75 868.3MHz, SF10BW125, 4/5CR
2026-05-06 23:45:33 10.8125°C 118.938% 3.3V v254 52.1198 / 5.07669 3533 ttn.v3 0.09km -100 -2 867.3MHz, SF10BW125, 4/5CR
- -106 -5.25 867.3MHz, SF10BW125, 4/5CR
2026-05-06 23:29:01 10.9375°C 118.938% 3.3V v254 52.1198 / 5.07669 3532 ttn.v3 0.09km -102 -0.5 868.1MHz, SF10BW125, 4/5CR
- -115 -14 868.1MHz, SF10BW125, 4/5CR
2026-05-06 23:12:29 11.0625°C 118.938% 3.3V v254 52.1198 / 5.07669 3531 ttn.v3 0.09km -101 -1.5 867.1MHz, SF10BW125, 4/5CR
5.883km -104 -11.25 867.1MHz, SF10BW125, 4/5CR
2026-05-06 22:55:57 11.125°C 118.938% 3.3V v254 52.1198 / 5.07669 3530 ttn.v3 0.09km -98 0.25 868.5MHz, SF10BW125, 4/5CR
- -113 -12.25 868.5MHz, SF10BW125, 4/5CR
2026-05-06 22:39:24 11.3125°C 118.938% 3.3V v254 52.1198 / 5.07669 3529 ttn.v3 0.09km -102 -1.5 867.9MHz, SF10BW125, 4/5CR
- -112 -11.5 867.9MHz, SF10BW125, 4/5CR
5.883km -110 -14 867.9MHz, SF10BW125, 4/5CR
2026-05-06 22:22:52 11.5625°C 118.938% 3.3V v254 52.1198 / 5.07669 3528 ttn.v3 0.09km -101 -3 868.3MHz, SF10BW125, 4/5CR
- -114 -13 868.3MHz, SF10BW125, 4/5CR
2026-05-06 22:06:20 11.75°C 118.938% 3.3V v254 52.1198 / 5.07669 3527 ttn.v3 0.09km -100 -1.75 867.7MHz, SF10BW125, 4/5CR
- -112 -4.75 867.7MHz, SF10BW125, 4/5CR
5.883km -107 -11.25 867.7MHz, SF10BW125, 4/5CR
5.934km -131 -15.25 867.7MHz, SF10BW125, 4/5CR
2026-05-06 21:49:48 11.8125°C 118.938% 3.3V v254 52.1198 / 5.07669 3526 ttn.v3 0.09km -101 -2.25 868.1MHz, SF10BW125, 4/5CR
- -113 -8.5 868.1MHz, SF10BW125, 4/5CR
5.883km -101 -11 868.1MHz, SF10BW125, 4/5CR
4.935km -125 -18 868.1MHz, SF10BW125, 4/5CR
2026-05-06 21:33:16 11.9375°C 118.938% 3.3V v254 52.1198 / 5.07669 3525 ttn.v3 0.09km -101 -2.5 867.5MHz, SF10BW125, 4/5CR
- -108 -8.75 867.5MHz, SF10BW125, 4/5CR
2026-05-06 21:16:44 12.0625°C 118.938% 3.3V v254 52.1198 / 5.07669 3524 ttn.v3 0.09km -97 2.25 868.5MHz, SF10BW125, 4/5CR
- -113 -12.75 868.5MHz, SF10BW125, 4/5CR
2026-05-06 21:00:11 12.1875°C 118.938% 3.3V v254 52.1198 / 5.07669 3523 ttn.v3 0.09km -100 -0.5 867.3MHz, SF10BW125, 4/5CR
- -112 -6.25 867.3MHz, SF10BW125, 4/5CR
2026-05-06 20:43:39 12.3125°C 118.938% 3.28V v254 52.1198 / 5.07669 3522 ttn.v3 0.09km -102 -3.5 868.3MHz, SF10BW125, 4/5CR
2026-05-06 20:27:07 12.375°C 114.688% 3.28V v254 52.1198 / 5.07669 3521 ttn.v3 - -112 -3.75 867.1MHz, SF10BW125, 4/5CR
0.09km -101 -4 867.1MHz, SF10BW125, 4/5CR
2026-05-06 20:10:34 12.5625°C 118.938% 3.28V v254 52.1198 / 5.07669 3520 ttn.v3 0.09km -102 -2.25 868.1MHz, SF10BW125, 4/5CR
- -114 -12.25 868.1MHz, SF10BW125, 4/5CR
2026-05-06 19:54:02 12.875°C 111.062% 3.28V v254 52.1198 / 5.07669 3519 ttn.v3 0.09km -102 -3 867.9MHz, SF10BW125, 4/5CR
- -114 -7 867.9MHz, SF10BW125, 4/5CR
5.883km -109 -11.75 867.9MHz, SF10BW125, 4/5CR
2026-05-06 19:37:30 13.125°C 106.938% 3.28V v254 52.1198 / 5.07669 3518 ttn.v3 0.09km -96 2.25 868.5MHz, SF10BW125, 4/5CR
- -111 -8.5 868.5MHz, SF10BW125, 4/5CR
2026-05-06 19:20:59 13.5°C 105.438% 3.28V v254 52.1198 / 5.07669 3517 ttn.v3 0.09km -96 3.75 867.7MHz, SF10BW125, 4/5CR
- -110 -8 867.7MHz, SF10BW125, 4/5CR
5.883km -108 -12.75 867.7MHz, SF10BW125, 4/5CR
2026-05-06 19:04:26 13.8125°C 102.25% 3.28V v254 52.1198 / 5.07669 3516 ttn.v3 0.09km -101 -3.25 868.3MHz, SF10BW125, 4/5CR
2026-05-06 18:47:53 13.9375°C 99.25% 3.28V v254 52.1198 / 5.07669 3515 ttn.v3 0.09km -100 -1.75 867.5MHz, SF10BW125, 4/5CR
- -109 -10.75 867.5MHz, SF10BW125, 4/5CR
2026-05-06 18:31:21 14°C 94.125% 3.28V v254 52.1198 / 5.07669 3514 ttn.v3 0.09km -93 1.75 868.1MHz, SF10BW125, 4/5CR
5.934km -133 -17.75 868.1MHz, SF10BW125, 4/5CR
2026-05-06 18:14:49 14.1875°C 97.6875% 3.28V v254 52.1198 / 5.07669 3513 ttn.v3 0.09km -102 -3 867.3MHz, SF10BW125, 4/5CR
2026-05-06 17:58:16 14.25°C 91.6875% 3.28V v254 52.1198 / 5.07669 3512 ttn.v3 0.09km -101 -1.5 868.5MHz, SF10BW125, 4/5CR
- -111 -10.25 868.5MHz, SF10BW125, 4/5CR
2026-05-06 17:41:44 14.375°C 88.1875% 3.28V v254 52.1198 / 5.07669 3511 ttn.v3 0.09km -101 0.75 867.1MHz, SF10BW125, 4/5CR
- -114 -4.5 867.1MHz, SF10BW125, 4/5CR
2026-05-06 17:25:12 14.3125°C 92.125% 3.28V v254 52.1198 / 5.07669 3510 ttn.v3 0.09km -101 -6.25 868.3MHz, SF10BW125, 4/5CR
- -114 -15.25 868.3MHz, SF10BW125, 4/5CR
2026-05-06 17:08:39 14.0625°C 97.1875% 3.28V v254 52.1198 / 5.07669 3509 ttn.v3 0.09km -102 -3.75 867.9MHz, SF10BW125, 4/5CR
- -113 -6 867.9MHz, SF10BW125, 4/5CR
5.883km -108 -10.25 867.9MHz, SF10BW125, 4/5CR
5.934km -132 -15.25 867.9MHz, SF10BW125, 4/5CR
2026-05-06 16:52:07 13.625°C 94.8125% 3.28V v254 52.1198 / 5.07669 3508 ttn.v3 0.09km -101 -4 868.1MHz, SF10BW125, 4/5CR
5.883km -104 -10.5 868.1MHz, SF10BW125, 4/5CR
- -111 -12.75 868.1MHz, SF10BW125, 4/5CR
2026-05-06 16:35:35 13.75°C 90.75% 3.28V v254 52.1198 / 5.07669 3507 ttn.v3 0.09km -102 -7.5 867.7MHz, SF10BW125, 4/5CR
5.883km -102 -10 867.7MHz, SF10BW125, 4/5CR
- -112 -11 867.7MHz, SF10BW125, 4/5CR
2026-05-06 16:19:03 13.75°C 106.5% 3.28V v254 52.1198 / 5.07669 3506 ttn.v3 0.09km -100 -0.5 868.5MHz, SF10BW125, 4/5CR
2026-05-06 16:02:31 13.8125°C 98.6875% 3.28V v254 52.1198 / 5.07669 3505 ttn.v3 0.09km -102 -7.5 867.5MHz, SF10BW125, 4/5CR
2026-05-06 15:45:58 13.625°C 96.1875% 3.28V v254 52.1198 / 5.07669 3504 ttn.v3 0.09km -99 1.25 868.3MHz, SF10BW125, 4/5CR
2026-05-06 15:29:26 13.875°C 91.9375% 3.28V v254 52.1198 / 5.07669 3503 ttn.v3 0.09km -100 -0.75 867.3MHz, SF10BW125, 4/5CR
- -109 -4 867.3MHz, SF10BW125, 4/5CR
2026-05-06 15:12:54 14.375°C 82.5% 3.28V v254 52.1198 / 5.07669 3502 ttn.v3 0.09km -102 -2 868.1MHz, SF10BW125, 4/5CR
- -114 -4.5 868.1MHz, SF10BW125, 4/5CR
5.883km -107 -11 868.1MHz, SF10BW125, 4/5CR
2026-05-06 14:56:22 15°C 76.25% 3.28V v254 52.1198 / 5.07669 3501 ttn.v3 0.09km -102 -0.5 867.1MHz, SF10BW125, 4/5CR
- -113 -1.5 867.1MHz, SF10BW125, 4/5CR
5.883km -109 -12 867.1MHz, SF10BW125, 4/5CR
2026-05-06 14:39:49 15.25°C 74.0625% 3.28V v254 52.1198 / 5.07669 3500 ttn.v3 0.09km -96 1.25 868.5MHz, SF10BW125, 4/5CR
2026-05-06 14:23:17 14.75°C 76.4375% 3.28V v254 52.1198 / 5.07669 3499 ttn.v3 0.09km -101 -1 867.9MHz, SF10BW125, 4/5CR
- -114 -4.75 867.9MHz, SF10BW125, 4/5CR
2026-05-06 14:06:44 14.875°C 83.4375% 3.28V v254 52.1198 / 5.07669 3498 ttn.v3 - -114 -6.75 868.3MHz, SF10BW125, 4/5CR
0.09km -102 -7.25 868.3MHz, SF10BW125, 4/5CR
2026-05-06 13:50:12 14.5625°C 82.75% 3.28V v254 52.1198 / 5.07669 3497 ttn.v3 - -112 -9.75 867.7MHz, SF10BW125, 4/5CR
2026-05-06 13:33:40 14.25°C 117.562% 3.28V v254 52.1198 / 5.07669 3496 ttn.v3 0.09km -101 -2.75 868.1MHz, SF10BW125, 4/5CR
- -115 -7 868.1MHz, SF10BW125, 4/5CR
5.934km -122 -15.25 868.1MHz, SF10BW125, 4/5CR
4.935km -124 -17 868.1MHz, SF10BW125, 4/5CR
2026-05-06 13:17:08 13.75°C 118.938% 3.28V v254 52.1198 / 5.07669 3495 ttn.v3 0.09km -100 -2.5 867.5MHz, SF10BW125, 4/5CR
2026-05-06 13:00:35 12.8125°C 118.938% 3.28V v254 52.1198 / 5.07669 3494 ttn.v3 0.09km -100 -0.75 868.5MHz, SF10BW125, 4/5CR
- -112 -11 868.5MHz, SF10BW125, 4/5CR
2026-05-06 12:44:03 12.5625°C 118.938% 3.28V v254 52.1198 / 5.07669 3493 ttn.v3 0.09km -100 -3.75 867.3MHz, SF10BW125, 4/5CR
- -112 -5 867.3MHz, SF10BW125, 4/5CR
2026-05-06 12:27:31 12.5625°C 118.938% 3.28V v254 52.1198 / 5.07669 3492 ttn.v3 0.09km -97 2 868.3MHz, SF10BW125, 4/5CR
2026-05-06 12:10:59 12.9375°C 118.938% 3.28V v254 52.1198 / 5.07669 3491 ttn.v3 0.09km -102 -2 867.1MHz, SF10BW125, 4/5CR
- -113 -5.5 867.1MHz, SF10BW125, 4/5CR
5.883km -109 -10.75 867.1MHz, SF10BW125, 4/5CR
2026-05-06 11:54:27 13.6875°C 118.938% 3.28V v254 52.1198 / 5.07669 3490 ttn.v3 0.09km -100 -0.25 868.1MHz, SF10BW125, 4/5CR
- -113 -8.5 868.1MHz, SF10BW125, 4/5CR
2026-05-06 11:37:54 14.5°C 118.938% 3.28V v254 52.1198 / 5.07669 3489 ttn.v3 0.09km -103 -6.75 867.9MHz, SF10BW125, 4/5CR
- -113 -9.25 867.9MHz, SF10BW125, 4/5CR
5.934km -130 -14.75 867.9MHz, SF10BW125, 4/5CR
2026-05-06 11:21:22 13.8125°C 118.938% 3.28V v254 52.1198 / 5.07669 3488 ttn.v3 - -113 -7 868.5MHz, SF10BW125, 4/5CR
0.09km -102 -8.25 868.5MHz, SF10BW125, 4/5CR
2026-05-06 11:04:50 14°C 118.938% 3.28V v254 52.1198 / 5.07669 3487 ttn.v3 - -113 -6 867.7MHz, SF10BW125, 4/5CR
0.09km -101 -6.75 867.7MHz, SF10BW125, 4/5CR
5.934km -127 -12.5 867.7MHz, SF10BW125, 4/5CR
2026-05-06 10:48:18 13.75°C 118.938% 3.28V v254 52.1198 / 5.07669 3486 ttn.v3 0.09km -101 -0.75 868.3MHz, SF10BW125, 4/5CR
2026-05-06 10:31:46 13.625°C 118.938% 3.28V v254 52.1198 / 5.07669 3485 ttn.v3 0.09km -101 -4.5 867.5MHz, SF10BW125, 4/5CR
- -108 -9.5 867.5MHz, SF10BW125, 4/5CR
2026-05-06 10:15:13 13.5°C 118.938% 3.28V v254 52.1198 / 5.07669 3484 ttn.v3 0.09km -102 -2.75 868.1MHz, SF10BW125, 4/5CR
2026-05-06 09:58:41 13.75°C 118.938% 3.28V v254 52.1198 / 5.07669 3483 ttn.v3 - -111 -0.75 867.3MHz, SF10BW125, 4/5CR
0.09km -103 -6.25 867.3MHz, SF10BW125, 4/5CR
2026-05-06 09:42:09 13.75°C 118.938% 3.28V v254 52.1198 / 5.07669 3482 ttn.v3 - -111 -2.25 868.5MHz, SF10BW125, 4/5CR
0.09km -100 -3.25 868.5MHz, SF10BW125, 4/5CR
2026-05-06 09:25:37 13.5°C 118.938% 3.28V v254 52.1198 / 5.07669 3481 ttn.v3 0.09km -103 -4.75 867.1MHz, SF10BW125, 4/5CR
- -114 -5.25 867.1MHz, SF10BW125, 4/5CR
5.883km -110 -14.25 867.1MHz, SF10BW125, 4/5CR
2026-05-06 09:09:05 12.9375°C 118.938% 3.28V v254 52.1198 / 5.07669 3480 ttn.v3 - -111 -3.5 868.3MHz, SF10BW125, 4/5CR
2026-05-06 08:52:32 12.0625°C 118.938% 3.3V v254 52.1198 / 5.07669 3479 ttn.v3 0.09km -101 -0.5 867.9MHz, SF10BW125, 4/5CR
5.934km -130 -13.75 867.9MHz, SF10BW125, 4/5CR
2026-05-06 08:36:00 11.5°C 118.938% 3.3V v254 52.1198 / 5.07669 3478 ttn.v3 0.09km -102 -5.25 868.1MHz, SF10BW125, 4/5CR
- -114 -10.25 868.1MHz, SF10BW125, 4/5CR
2026-05-06 08:19:28 11.1875°C 118.938% 3.3V v254 52.1198 / 5.07669 3477 ttn.v3 - -113 -5 867.7MHz, SF10BW125, 4/5CR
0.09km -102 -5.5 867.7MHz, SF10BW125, 4/5CR
2026-05-06 08:02:56 10.875°C 118.938% 3.3V v254 52.1198 / 5.07669 3476 ttn.v3 0.09km -99 2 868.5MHz, SF10BW125, 4/5CR
- -113 -10.25 868.5MHz, SF10BW125, 4/5CR
2026-05-06 07:46:24 10.5°C 118.938% 3.3V v254 52.1198 / 5.07669 3475 ttn.v3 - -109 -7.25 867.5MHz, SF10BW125, 4/5CR
0.09km -101 -8 867.5MHz, SF10BW125, 4/5CR
2026-05-06 07:29:52 10.25°C 118.938% 3.3V v254 52.1198 / 5.07669 3474 ttn.v3 0.09km -95 -1.5 868.3MHz, SF10BW125, 4/5CR
- -114 -9.75 868.3MHz, SF10BW125, 4/5CR
2026-05-06 07:13:19 10°C 118.938% 3.3V v254 52.1198 / 5.07669 3473 ttn.v3 - -111 -3.25 867.3MHz, SF10BW125, 4/5CR
0.09km -102 -6.75 867.3MHz, SF10BW125, 4/5CR
2026-05-06 06:56:47 9.8125°C 118.938% 3.3V v254 52.1198 / 5.07669 3472 ttn.v3 - -113 -6.75 868.1MHz, SF10BW125, 4/5CR
0.09km -105 -11.75 868.1MHz, SF10BW125, 4/5CR
5.883km -107 -13.75 868.1MHz, SF10BW125, 4/5CR
5.934km -132 -17 868.1MHz, SF10BW125, 4/5CR
2026-05-06 06:40:15 9.75°C 118.938% 3.3V v254 52.1198 / 5.07669 3471 ttn.v3 0.09km -103 -5.25 867.1MHz, SF10BW125, 4/5CR
- -113 -6.5 867.1MHz, SF10BW125, 4/5CR
2026-05-06 06:23:43 9.625°C 118.938% 3.3V v254 52.1198 / 5.07669 3470 ttn.v3 0.09km -100 -1 868.5MHz, SF10BW125, 4/5CR
- -113 -6.75 868.5MHz, SF10BW125, 4/5CR
2026-05-06 06:07:11 9.5625°C 118.938% 3.3V v254 52.1198 / 5.07669 3469 ttn.v3 0.09km -102 0.25 867.9MHz, SF10BW125, 4/5CR
5.883km -104 -7 867.9MHz, SF10BW125, 4/5CR
- -115 -12.5 867.9MHz, SF10BW125, 4/5CR
2026-05-06 05:50:39 9.4375°C 118.938% 3.3V v254 52.1198 / 5.07669 3468 ttn.v3 0.09km -103 -6.5 868.3MHz, SF10BW125, 4/5CR
- -112 -10.25 868.3MHz, SF10BW125, 4/5CR
2026-05-06 05:34:07 9.375°C 118.938% 3.3V v254 52.1198 / 5.07669 3467 ttn.v3 0.09km -102 -3.5 867.7MHz, SF10BW125, 4/5CR
- -114 -9 867.7MHz, SF10BW125, 4/5CR
5.934km -126 -9.75 867.7MHz, SF10BW125, 4/5CR
- -124 -13.5 867.7MHz, SF10BW125, 4/5CR
2026-05-06 05:17:35 9.3125°C 118.938% 3.3V v254 52.1198 / 5.07669 3466 ttn.v3 0.09km -105 -5.75 868.1MHz, SF10BW125, 4/5CR
- -115 -10.5 868.1MHz, SF10BW125, 4/5CR
5.934km -131 -16.5 868.1MHz, SF10BW125, 4/5CR
2026-05-06 05:01:02 9.3125°C 118.938% 3.3V v254 52.1198 / 5.07669 3465 ttn.v3 0.09km -103 -5.75 867.5MHz, SF10BW125, 4/5CR
- -109 -7 867.5MHz, SF10BW125, 4/5CR
2026-05-06 04:44:30 9.5°C 118.938% 3.3V v254 52.1198 / 5.07669 3464 ttn.v3 0.09km -102 -3 868.5MHz, SF10BW125, 4/5CR
2026-05-06 04:27:58 9.5625°C 118.938% 3.3V v254 52.1198 / 5.07669 3463 ttn.v3 0.09km -102 -5 867.3MHz, SF10BW125, 4/5CR
- -108 -5.25 867.3MHz, SF10BW125, 4/5CR
5.934km -131 -14.75 867.3MHz, SF10BW125, 4/5CR
2026-05-06 04:11:26 9.6875°C 118.938% 3.3V v254 52.1198 / 5.07669 3462 ttn.v3 - -111 -8.25 868.3MHz, SF10BW125, 4/5CR
0.09km -103 -10 868.3MHz, SF10BW125, 4/5CR
2026-05-06 03:54:54 9.875°C 118.938% 3.3V v254 52.1198 / 5.07669 3461 ttn.v3 0.09km -105 -3.5 867.1MHz, SF10BW125, 4/5CR
- -114 -4.75 867.1MHz, SF10BW125, 4/5CR
2026-05-06 03:38:22 10°C 118.938% 3.3V v254 52.1198 / 5.07669 3460 ttn.v3 0.09km -101 -0.5 868.1MHz, SF10BW125, 4/5CR
- -114 -6 868.1MHz, SF10BW125, 4/5CR
2026-05-06 03:21:50 10°C 118.938% 3.3V v254 52.1198 / 5.07669 3459 ttn.v3 - -114 -8.25 867.9MHz, SF10BW125, 4/5CR
2026-05-06 03:05:17 9.9375°C 118.938% 3.3V v254 52.1198 / 5.07669 3458 ttn.v3 - -113 -5 868.5MHz, SF10BW125, 4/5CR
0.09km -103 -8.5 868.5MHz, SF10BW125, 4/5CR
2026-05-06 02:48:45 9.875°C 118.938% 3.3V v254 52.1198 / 5.07669 3457 ttn.v3 - -111 -4.25 867.7MHz, SF10BW125, 4/5CR
0.09km -103 -11.75 867.7MHz, SF10BW125, 4/5CR
5.934km -131 -14.75 867.7MHz, SF10BW125, 4/5CR
2026-05-06 02:33:04 9.875°C 118.938% 3.28V v254 52.1198 / 5.07669 3456 ttn.v3 0.09km -102 -2.75 868.3MHz, SF12BW125, 4/5CR
2026-05-06 02:15:46 9.75°C 118.938% 3.3V v254 52.1199 / 5.07663 3455 ttn.v3 0.101km -101 -2.5 867.5MHz, SF10BW125, 4/5CR
- -112 -5.5 867.5MHz, SF10BW125, 4/5CR
2026-05-06 01:59:13 9.6875°C 118.938% 3.3V v254 52.1199 / 5.07663 3454 ttn.v3 0.101km -105 -7 868.1MHz, SF10BW125, 4/5CR
- -115 -8.75 868.1MHz, SF10BW125, 4/5CR
5.945km -126 -11.5 868.1MHz, SF10BW125, 4/5CR
2026-05-06 01:42:41 9.5625°C 118.938% 3.3V v254 52.1199 / 5.07663 3453 ttn.v3 0.101km -102 -6.25 867.3MHz, SF10BW125, 4/5CR
5.945km -129 -13.25 867.3MHz, SF10BW125, 4/5CR
2026-05-06 01:26:09 9.5°C 118.938% 3.3V v254 52.1199 / 5.07663 3452 ttn.v3 0.101km -102 -4 868.5MHz, SF10BW125, 4/5CR
- -113 -11 868.5MHz, SF10BW125, 4/5CR
2026-05-06 01:09:37 9.4375°C 118.938% 3.3V v254 52.1199 / 5.07663 3451 ttn.v3 - -112 -2.25 867.1MHz, SF10BW125, 4/5CR
0.101km -103 -3.25 867.1MHz, SF10BW125, 4/5CR
2026-05-06 00:53:05 9.375°C 118.938% 3.3V v254 52.1199 / 5.07663 3450 ttn.v3 0.101km -103 -5.5 868.3MHz, SF10BW125, 4/5CR
- -112 -8 868.3MHz, SF10BW125, 4/5CR
2026-05-06 00:36:33 9.25°C 118.938% 3.3V v254 52.1199 / 5.07663 3449 ttn.v3 0.101km -103 -3.25 867.9MHz, SF10BW125, 4/5CR
- -114 -8.75 867.9MHz, SF10BW125, 4/5CR
5.892km -111 -13 867.9MHz, SF10BW125, 4/5CR
2026-05-06 00:20:01 9.1875°C 118.938% 3.3V v254 52.1199 / 5.07663 3448 ttn.v3 0.101km -101 -1.25 868.1MHz, SF10BW125, 4/5CR
2026-05-06 00:03:29 9°C 118.938% 3.3V v254 52.1199 / 5.07663 3447 ttn.v3 - -113 -6.75 867.7MHz, SF10BW125, 4/5CR
0.101km -103 -8.75 867.7MHz, SF10BW125, 4/5CR
5.892km -107 -10.75 867.7MHz, SF10BW125, 4/5CR
5.945km -131 -15.75 867.7MHz, SF10BW125, 4/5CR
2026-05-05 23:46:56 9.25°C 118.938% 3.3V v254 52.1199 / 5.07663 3446 ttn.v3 0.101km -103 -4.25 868.5MHz, SF10BW125, 4/5CR
- -112 -11.75 868.5MHz, SF10BW125, 4/5CR
2026-05-05 23:30:24 9.4375°C 118.938% 3.3V v254 52.1199 / 5.07663 3445 ttn.v3 - -108 -5.75 867.5MHz, SF10BW125, 4/5CR
0.101km -103 -10 867.5MHz, SF10BW125, 4/5CR
2026-05-05 23:13:52 9.75°C 118.938% 3.3V v254 52.1199 / 5.07663 3444 ttn.v3 0.101km -102 -8.25 868.3MHz, SF10BW125, 4/5CR
- -112 -13.25 868.3MHz, SF10BW125, 4/5CR
2026-05-05 22:57:20 10.125°C 118.938% 3.3V v254 52.1199 / 5.07663 3443 ttn.v3 - -112 -5.75 867.3MHz, SF10BW125, 4/5CR
0.101km -103 -12 867.3MHz, SF10BW125, 4/5CR
2026-05-05 22:40:48 10.5625°C 118.938% 3.3V v254 52.1199 / 5.07663 3442 ttn.v3 0.101km -105 -5 868.1MHz, SF10BW125, 4/5CR
- -115 -11.25 868.1MHz, SF10BW125, 4/5CR
2026-05-05 22:24:16 10.8125°C 118.938% 3.3V v254 52.1199 / 5.07663 3441 ttn.v3 0.101km -102 -3 867.1MHz, SF10BW125, 4/5CR
- -115 -10.5 867.1MHz, SF10BW125, 4/5CR
5.892km -109 -13.75 867.1MHz, SF10BW125, 4/5CR
5.945km -131 -14 867.1MHz, SF10BW125, 4/5CR
2026-05-05 22:07:44 10.8125°C 118.938% 3.3V v254 52.1199 / 5.07663 3440 ttn.v3 0.101km -100 2 868.5MHz, SF10BW125, 4/5CR
2026-05-05 21:51:12 10.75°C 118.938% 3.3V v254 52.1199 / 5.07663 3439 ttn.v3 0.101km -103 -5.25 867.9MHz, SF10BW125, 4/5CR
- -114 -9 867.9MHz, SF10BW125, 4/5CR
2026-05-05 21:34:39 10.6875°C 118.938% 3.3V v254 52.1199 / 5.07663 3438 ttn.v3 0.101km -102 -6.5 868.3MHz, SF10BW125, 4/5CR
- -112 -13.5 868.3MHz, SF10BW125, 4/5CR
2026-05-05 21:18:07 10.75°C 118.938% 3.3V v254 52.1199 / 5.07663 3437 ttn.v3 0.101km -102 -5 867.7MHz, SF10BW125, 4/5CR
- -111 -6 867.7MHz, SF10BW125, 4/5CR
2026-05-05 21:01:35 11°C 118.938% 3.3V v254 52.1199 / 5.07663 3436 ttn.v3 - -113 -4.25 868.1MHz, SF10BW125, 4/5CR
0.101km -105 -6.5 868.1MHz, SF10BW125, 4/5CR
5.945km -130 -15.5 868.1MHz, SF10BW125, 4/5CR
2026-05-05 20:45:03 11.3125°C 118.938% 3.3V v254 52.1199 / 5.07663 3435 ttn.v3 0.101km -102 -6.75 867.5MHz, SF10BW125, 4/5CR
- -109 -10.75 867.5MHz, SF10BW125, 4/5CR
2026-05-05 20:28:31 11.6875°C 118.938% 3.3V v254 52.1199 / 5.07663 3434 ttn.v3 0.101km -102 -3 868.5MHz, SF10BW125, 4/5CR
- -113 -8.25 868.5MHz, SF10BW125, 4/5CR
2026-05-05 20:11:59 12.0625°C 118.938% 3.3V v254 52.1199 / 5.07663 3433 ttn.v3 - -111 -5.75 867.3MHz, SF10BW125, 4/5CR
0.101km -103 -7 867.3MHz, SF10BW125, 4/5CR
2026-05-05 19:55:27 12.4375°C 118.938% 3.28V v254 52.1199 / 5.07663 3432 ttn.v3 0.101km -103 -8.5 868.3MHz, SF10BW125, 4/5CR
- -113 -14.75 868.3MHz, SF10BW125, 4/5CR
2026-05-05 19:38:54 12.75°C 118.938% 3.28V v254 52.1199 / 5.07663 3431 ttn.v3 0.101km -101 0.5 867.1MHz, SF10BW125, 4/5CR
- -113 -5.25 867.1MHz, SF10BW125, 4/5CR
5.892km -104 -11.25 867.1MHz, SF10BW125, 4/5CR
5.945km -132 -15.5 867.1MHz, SF10BW125, 4/5CR
2026-05-05 19:22:22 13°C 118.938% 3.28V v254 52.1199 / 5.07663 3430 ttn.v3 0.101km -101 2 868.1MHz, SF10BW125, 4/5CR
5.892km -104 -12.5 868.1MHz, SF10BW125, 4/5CR
5.945km -130 -14.5 868.1MHz, SF10BW125, 4/5CR
2026-05-05 19:05:50 13.25°C 118.938% 3.28V v254 52.1199 / 5.07663 3429 ttn.v3 0.101km -101 3 867.9MHz, SF10BW125, 4/5CR
5.892km -110 -11.25 867.9MHz, SF10BW125, 4/5CR
- -113 -12.75 867.9MHz, SF10BW125, 4/5CR
5.945km -132 -16.5 867.9MHz, SF10BW125, 4/5CR
2026-05-05 18:49:18 13.5°C 118.938% 3.28V v254 52.1199 / 5.07663 3428 ttn.v3 0.101km -102 -1.5 868.5MHz, SF10BW125, 4/5CR
2026-05-05 18:32:46 13.6875°C 118.938% 3.28V v254 52.1199 / 5.07663 3427 ttn.v3 0.101km -103 -5.75 867.7MHz, SF10BW125, 4/5CR
- -113 -8 867.7MHz, SF10BW125, 4/5CR
5.892km -108 -12.25 867.7MHz, SF10BW125, 4/5CR
2026-05-05 18:16:13 14.25°C 118.938% 3.28V v254 52.1199 / 5.07663 3426 ttn.v3 - -111 -6 868.3MHz, SF10BW125, 4/5CR
0.101km -103 -6.5 868.3MHz, SF10BW125, 4/5CR
2026-05-05 17:59:41 14.3125°C 118.938% 3.28V v254 52.1199 / 5.07663 3425 ttn.v3 0.101km -102 -4.5 867.5MHz, SF10BW125, 4/5CR
- -113 -6.75 867.5MHz, SF10BW125, 4/5CR
2026-05-05 17:43:09 14.625°C 118.938% 3.28V v254 52.1199 / 5.07663 3424 ttn.v3 0.101km -105 -4.75 868.1MHz, SF10BW125, 4/5CR
- -113 -5.75 868.1MHz, SF10BW125, 4/5CR
5.892km -99 -9.75 868.1MHz, SF10BW125, 4/5CR
2026-05-05 17:26:37 14.75°C 118.938% 3.28V v254 52.1199 / 5.07663 3423 ttn.v3 0.101km -102 -2.25 867.3MHz, SF10BW125, 4/5CR
- -112 -8 867.3MHz, SF10BW125, 4/5CR
5.945km -128 -14 867.3MHz, SF10BW125, 4/5CR
2026-05-05 17:10:04 14.75°C 118.938% 3.28V v254 52.1199 / 5.07663 3422 ttn.v3 0.101km -101 -4.25 868.5MHz, SF10BW125, 4/5CR
- -113 -11.25 868.5MHz, SF10BW125, 4/5CR
2026-05-05 16:53:32 14.8125°C 118.938% 3.28V v254 52.1199 / 5.07663 3421 ttn.v3 0.101km -102 -1.5 867.1MHz, SF10BW125, 4/5CR
- -113 -4.75 867.1MHz, SF10BW125, 4/5CR
2026-05-05 16:37:00 14.9375°C 118.938% 3.28V v254 52.1199 / 5.07663 3420 ttn.v3 0.101km -100 1.5 868.3MHz, SF10BW125, 4/5CR
2026-05-05 16:20:27 15.1875°C 118.938% 3.28V v254 52.1199 / 5.07663 3419 ttn.v3 0.101km -97 -2.5 867.9MHz, SF10BW125, 4/5CR
- -114 -9.5 867.9MHz, SF10BW125, 4/5CR
2026-05-05 16:03:55 15.375°C 118.938% 3.28V v254 52.1199 / 5.07663 3418 ttn.v3 0.101km -103 -3.25 868.1MHz, SF10BW125, 4/5CR
- -115 -10 868.1MHz, SF10BW125, 4/5CR
5.892km -100 -13.25 868.1MHz, SF10BW125, 4/5CR
- -124 -16.25 868.1MHz, SF10BW125, 4/5CR
2026-05-05 15:47:23 15.75°C 118.938% 3.28V v254 52.1199 / 5.07663 3417 ttn.v3 0.101km -98 2.75 867.7MHz, SF10BW125, 4/5CR
- -111 -6.75 867.7MHz, SF10BW125, 4/5CR
2026-05-05 15:30:50 15.8125°C 118.938% 3.28V v254 52.1199 / 5.07663 3416 ttn.v3 - -112 -7.75 868.5MHz, SF10BW125, 4/5CR
0.101km -102 -8.5 868.5MHz, SF10BW125, 4/5CR
2026-05-05 15:14:18 15.5°C 118.938% 3.28V v254 52.1199 / 5.07663 3415 ttn.v3 0.101km -100 -1.25 867.5MHz, SF10BW125, 4/5CR
- -109 -6.75 867.5MHz, SF10BW125, 4/5CR
2026-05-05 14:57:46 14.875°C 118.938% 3.28V v254 52.1199 / 5.07663 3414 ttn.v3 0.101km -103 -7.5 868.3MHz, SF10BW125, 4/5CR
- -113 -9.25 868.3MHz, SF10BW125, 4/5CR
2026-05-05 14:41:13 15.0625°C 118.938% 3.28V v254 52.1199 / 5.07663 3413 ttn.v3 - -112 -4.75 867.3MHz, SF10BW125, 4/5CR
0.101km -103 -14.25 867.3MHz, SF10BW125, 4/5CR
2026-05-05 14:24:41 14.625°C 118.938% 3.28V v254 52.1199 / 5.07663 3412 ttn.v3 0.101km -101 -1.25 868.1MHz, SF10BW125, 4/5CR
2026-05-05 14:08:09 14.1875°C 118.938% 3.28V v254 52.1199 / 5.07663 3411 ttn.v3 0.101km -103 -6.5 867.1MHz, SF10BW125, 4/5CR
2026-05-05 13:51:36 13.875°C 118.938% 3.28V v254 52.1199 / 5.07663 3410 ttn.v3 0.101km -99 0 868.5MHz, SF10BW125, 4/5CR
- -112 -5.75 868.5MHz, SF10BW125, 4/5CR
2026-05-05 13:35:04 13.3125°C 118.938% 3.28V v254 52.1199 / 5.07663 3409 ttn.v3 5.945km -130 -13 867.9MHz, SF10BW125, 4/5CR
- -114 -13.25 867.9MHz, SF10BW125, 4/5CR
0.101km -103 -13.75 867.9MHz, SF10BW125, 4/5CR
2026-05-05 13:18:32 13°C 118.938% 3.28V v254 52.1199 / 5.07663 3408 ttn.v3 0.101km -101 0 868.3MHz, SF10BW125, 4/5CR
2026-05-05 13:02:00 12.5625°C 118.938% 3.28V v254 52.1199 / 5.07663 3407 ttn.v3 0.101km -102 -2.75 867.7MHz, SF10BW125, 4/5CR
- -112 -9 867.7MHz, SF10BW125, 4/5CR
5.945km -127 -11.25 867.7MHz, SF10BW125, 4/5CR
2026-05-05 12:45:28 12.3125°C 118.938% 3.28V v254 52.1199 / 5.07663 3406 ttn.v3 0.101km -105 -7 868.1MHz, SF10BW125, 4/5CR
- -115 -7.75 868.1MHz, SF10BW125, 4/5CR
2026-05-05 12:28:56 12.1875°C 118.938% 3.28V v254 52.1199 / 5.07663 3405 ttn.v3 0.101km -101 -9.25 867.5MHz, SF10BW125, 4/5CR
- -109 -10.25 867.5MHz, SF10BW125, 4/5CR
2026-05-05 12:12:23 11.5625°C 118.938% 3.3V v254 52.1199 / 5.07663 3404 ttn.v3 0.101km -100 1 868.5MHz, SF10BW125, 4/5CR
- -112 -7.25 868.5MHz, SF10BW125, 4/5CR
2026-05-05 11:55:51 11.3125°C 118.938% 3.3V v254 52.1199 / 5.07663 3403 ttn.v3 - -113 -5.5 867.3MHz, SF10BW125, 4/5CR
0.101km -101 -7 867.3MHz, SF10BW125, 4/5CR
2026-05-05 11:39:19 11.0625°C 118.938% 3.3V v254 52.1199 / 5.07663 3402 ttn.v3 0.101km -102 -2 868.3MHz, SF10BW125, 4/5CR
- -111 -5.75 868.3MHz, SF10BW125, 4/5CR
2026-05-05 11:22:47 10.75°C 118.938% 3.3V v254 52.1199 / 5.07663 3401 ttn.v3 0.101km -101 0 867.1MHz, SF10BW125, 4/5CR
- -112 -3.75 867.1MHz, SF10BW125, 4/5CR
5.892km -110 -11.75 867.1MHz, SF10BW125, 4/5CR
2026-05-05 11:06:15 10.625°C 118.938% 3.3V v254 52.1199 / 5.07663 3400 ttn.v3 0.101km -102 1.5 868.1MHz, SF10BW125, 4/5CR
- -114 -6 868.1MHz, SF10BW125, 4/5CR
2026-05-05 10:49:43 10.4375°C 118.938% 3.3V v254 52.1199 / 5.07663 3399 ttn.v3 0.101km -102 -1.75 867.9MHz, SF10BW125, 4/5CR
- -112 -2.75 867.9MHz, SF10BW125, 4/5CR
5.945km -132 -15.25 867.9MHz, SF10BW125, 4/5CR
2026-05-05 10:33:11 10.375°C 118.938% 3.3V v254 52.1199 / 5.07663 3398 ttn.v3 0.101km -101 -2.25 868.5MHz, SF10BW125, 4/5CR
- -113 -10.25 868.5MHz, SF10BW125, 4/5CR
2026-05-05 10:16:38 10.25°C 118.938% 3.3V v254 52.1199 / 5.07663 3397 ttn.v3 - -112 -4.25 867.7MHz, SF10BW125, 4/5CR
- -118 -7.25 867.7MHz, SF10BW125, 4/5CR
0.101km -103 -12 867.7MHz, SF10BW125, 4/5CR
2026-05-05 10:00:06 10°C 118.938% 3.3V v254 52.1199 / 5.07663 3396 ttn.v3 0.101km -103 0.75 868.3MHz, SF10BW125, 4/5CR

Message count: 200
Node count: 1

Messages per node

Number of messages in list aboveNodes
200

Statistics per gateway

GatewayNumber of messagesNumber of nodesNodes
1961 (0.101km)
1571
331 (5.892km)
321 (5.945km)
41
21 (4.935km)

Filter by dataset